createdAt,value
2019-01-21T00:01:36.498Z,173.50
2019-01-21T00:04:08.408Z,168.60
2019-01-21T00:06:39.049Z,178.07
2019-01-21T00:09:09.862Z,182.73
2019-01-21T00:11:40.402Z,186.90
2019-01-21T00:14:11.294Z,196.83
2019-01-21T00:16:42.098Z,179.50
2019-01-21T00:19:12.688Z,193.70
2019-01-21T00:21:42.985Z,182.47
2019-01-21T00:24:13.514Z,193.90
2019-01-21T00:26:44.127Z,198.23
2019-01-21T00:29:14.512Z,200.03
2019-01-21T00:31:46.147Z,186.50
2019-01-21T00:34:16.585Z,187.57
2019-01-21T00:36:46.963Z,196.97
2019-01-21T00:39:17.244Z,185.00
2019-01-21T00:41:47.945Z,186.30
2019-01-21T00:44:18.828Z,194.83
2019-01-21T00:46:49.325Z,214.37
2019-01-21T00:49:20.051Z,221.23
2019-01-21T00:51:50.455Z,204.37
2019-01-21T00:54:20.871Z,176.53
2019-01-21T00:56:51.503Z,181.63
2019-01-21T00:59:22.603Z,174.20
2019-01-21T01:01:53.218Z,175.77
2019-01-21T01:04:23.696Z,187.33
2019-01-21T01:06:54.155Z,181.87
2019-01-21T01:09:24.554Z,185.60
2019-01-21T01:11:55.111Z,160.70
2019-01-21T01:14:26.172Z,167.23
2019-01-21T01:16:56.585Z,167.00
2019-01-21T01:19:27.037Z,170.10
2019-01-21T01:21:57.582Z,169.23
2019-01-21T01:24:28.104Z,168.07
2019-01-21T01:26:58.411Z,154.27
2019-01-21T01:29:28.925Z,158.47
2019-01-21T01:31:59.421Z,156.87
2019-01-21T01:34:29.938Z,149.23
2019-01-21T01:37:00.351Z,142.73
2019-01-21T01:39:30.710Z,143.03
2019-01-21T01:42:01.384Z,143.40
2019-01-21T01:44:32.139Z,155.60
2019-01-21T01:47:02.838Z,156.43
2019-01-21T01:49:33.216Z,149.53
2019-01-21T01:52:03.520Z,161.70
2019-01-21T01:54:34.469Z,179.93
2019-01-21T01:57:04.886Z,178.50
2019-01-21T01:59:35.427Z,160.23
2019-01-21T02:02:05.814Z,170.10
2019-01-21T02:04:36.311Z,173.70
2019-01-21T02:07:07.466Z,168.53
2019-01-21T02:09:37.798Z,168.40
2019-01-21T02:12:08.261Z,171.37
2019-01-21T02:14:38.767Z,171.90
2019-01-21T02:17:09.263Z,172.67
2019-01-21T02:19:39.806Z,177.23
2019-01-21T02:22:10.173Z,158.10
2019-01-21T02:24:41.852Z,171.20
2019-01-21T02:27:18.819Z,175.20
2019-01-21T02:30:21.228Z,165.77
2019-01-21T02:33:11.587Z,175.63
2019-01-21T02:36:12.089Z,171.03
2019-01-21T02:39:33.015Z,155.97
2019-01-21T02:42:30.496Z,162.13
2019-01-21T02:45:54.456Z,152.87
2019-01-21T02:48:48.293Z,131.77
2019-01-21T02:51:48.771Z,154.43
2019-01-21T02:54:49.336Z,148.30
2019-01-21T02:58:02.509Z,153.40
2019-01-21T03:00:53.618Z,148.40
2019-01-21T03:03:54.200Z,142.70
2019-01-21T03:06:43.521Z,141.87
2019-01-21T03:09:54.650Z,142.70
2019-01-21T03:13:08.184Z,145.20
2019-01-21T03:16:17.413Z,148.07
2019-01-21T03:19:25.042Z,144.63
2019-01-21T03:22:36.038Z,149.43
2019-01-21T03:25:34.423Z,127.43
2019-01-21T03:28:51.888Z,141.43
2019-01-21T03:32:15.382Z,116.83
2019-01-21T03:35:03.756Z,149.80
2019-01-21T03:38:29.613Z,137.23
2019-01-21T03:41:27.861Z,137.47
2019-01-21T03:44:43.189Z,145.77
2019-01-21T03:47:30.581Z,139.67
2019-01-21T03:50:51.009Z,141.07
2019-01-21T03:53:57.779Z,132.73
2019-01-21T03:56:52.945Z,124.63
2019-01-21T03:59:55.799Z,133.80
2019-01-21T04:03:01.813Z,136.00
2019-01-21T04:05:51.496Z,115.77
2019-01-21T04:08:58.137Z,126.13
2019-01-21T04:12:04.183Z,127.67
2019-01-21T04:14:59.108Z,120.80
2019-01-21T04:18:05.714Z,92.33
2019-01-21T04:21:38.403Z,116.67
2019-01-21T04:24:49.878Z,111.57
2019-01-21T04:27:56.471Z,124.60
2019-01-21T04:31:29.392Z,105.40
2019-01-21T04:34:50.464Z,95.47
2019-01-21T04:37:59.220Z,95.87
2019-01-21T04:41:07.137Z,89.87
2019-01-21T04:44:21.893Z,77.67
2019-01-21T04:47:32.829Z,64.53
2019-01-21T04:50:33.492Z,75.60
2019-01-21T04:53:41.489Z,54.07
2019-01-21T04:56:42.399Z,67.97
2019-01-21T04:59:58.925Z,71.97
2019-01-21T05:03:10.537Z,71.03
2019-01-21T05:06:25.087Z,78.50
2019-01-21T05:09:20.005Z,72.23
2019-01-21T05:12:17.331Z,74.07
2019-01-21T05:15:27.684Z,70.70
2019-01-21T05:18:30.699Z,72.60
2019-01-21T05:21:54.111Z,67.57
2019-01-21T05:25:05.204Z,64.70
2019-01-21T05:28:02.547Z,59.07
2019-01-21T05:31:25.369Z,55.63
2019-01-21T05:34:27.983Z,67.97
2019-01-21T05:37:31.551Z,68.20
2019-01-21T05:40:30.400Z,65.33
2019-01-21T05:43:56.678Z,72.03
2019-01-21T05:47:10.057Z,66.27
2019-01-21T05:50:16.309Z,60.23
2019-01-21T05:53:27.772Z,55.67
2019-01-21T05:56:29.402Z,54.30
2019-01-21T05:59:36.445Z,62.27
2019-01-21T06:02:56.501Z,59.90
2019-01-21T06:05:48.846Z,58.60
2019-01-21T06:08:50.777Z,58.53
2019-01-21T06:11:33.761Z,55.23
2019-01-21T06:14:35.419Z,54.27
2019-01-21T06:17:38.397Z,65.60
2019-01-21T06:21:01.101Z,72.93
2019-01-21T06:24:10.851Z,64.07
2019-01-21T06:27:26.142Z,64.53
2019-01-21T06:30:37.557Z,62.00
2019-01-21T06:34:19.982Z,60.23
2019-01-21T06:37:02.748Z,42.27
2019-01-21T06:40:06.901Z,71.63
2019-01-21T06:43:05.711Z,67.60
2019-01-21T06:46:15.675Z,65.30
2019-01-21T06:49:32.493Z,64.47
2019-01-21T06:52:28.019Z,53.87
2019-01-21T06:55:11.433Z,55.07
2019-01-21T06:58:21.148Z,53.47
2019-01-21T07:01:35.558Z,55.37
2019-01-21T07:04:19.359Z,56.33
2019-01-21T07:07:16.656Z,55.03
2019-01-21T07:10:40.219Z,60.97
2019-01-21T07:13:58.536Z,59.40
2019-01-21T07:16:51.419Z,58.80
2019-01-21T07:20:04.765Z,60.13
2019-01-21T07:22:59.059Z,61.00
2019-01-21T07:26:04.629Z,60.90
2019-01-21T07:29:00.303Z,57.30
2019-01-21T07:31:39.263Z,51.43
2019-01-21T07:34:57.853Z,56.57
2019-01-21T07:38:10.738Z,58.27
2019-01-21T07:41:17.966Z,51.03
2019-01-21T07:44:35.158Z,51.70
2019-01-21T07:47:56.453Z,45.70
2019-01-21T07:50:55.965Z,50.30
2019-01-21T07:54:03.095Z,51.63
2019-01-21T07:57:16.591Z,50.50
2019-01-21T08:00:10.055Z,50.63
2019-01-21T08:03:05.483Z,52.90
2019-01-21T08:06:29.213Z,53.70
2019-01-21T08:09:43.009Z,51.33
2019-01-21T08:12:59.329Z,49.50
2019-01-21T08:16:13.773Z,52.13
2019-01-21T08:19:24.246Z,50.60
2019-01-21T08:22:40.365Z,53.53
2019-01-21T08:25:46.201Z,52.73
2019-01-21T08:28:54.624Z,57.47
2019-01-21T08:32:02.318Z,52.20
2019-01-21T08:34:53.860Z,56.90
2019-01-21T08:38:03.719Z,52.67
2019-01-21T08:41:04.142Z,55.77
2019-01-21T08:44:15.674Z,54.50
2019-01-21T08:47:27.357Z,46.50
2019-01-21T08:50:18.754Z,55.13
2019-01-21T08:53:14.125Z,52.67
2019-01-21T08:56:22.065Z,55.73
2019-01-21T08:59:23.648Z,50.73
2019-01-21T09:02:47.400Z,55.93
2019-01-21T09:05:41.268Z,42.30
2019-01-21T09:09:01.554Z,48.50
2019-01-21T09:12:20.231Z,48.30
2019-01-21T09:15:35.736Z,46.47
2019-01-21T09:18:38.096Z,46.70
2019-01-21T09:21:44.998Z,45.57
2019-01-21T09:24:41.670Z,48.53
2019-01-21T09:27:39.196Z,47.67
2019-01-21T09:30:35.096Z,45.97
2019-01-21T09:33:27.900Z,48.03
2019-01-21T09:36:35.682Z,47.17
2019-01-21T09:39:50.144Z,46.43
2019-01-21T09:42:31.076Z,57.33
2019-01-21T09:45:16.493Z,54.23
2019-01-21T09:47:45.324Z,51.47
2019-01-21T09:50:16.724Z,48.23
2019-01-21T09:52:47.283Z,45.43
2019-01-21T09:55:17.704Z,44.57
2019-01-21T09:57:48.089Z,42.43
2019-01-21T10:00:19.290Z,46.73
2019-01-21T10:02:51.116Z,43.50
2019-01-21T10:05:21.638Z,46.03
2019-01-21T10:08:28.683Z,48.43
2019-01-21T10:11:37.573Z,47.07
2019-01-21T10:14:48.728Z,48.07
2019-01-21T10:17:51.170Z,47.57
2019-01-21T10:21:05.127Z,43.93
2019-01-21T10:24:13.452Z,49.87
2019-01-21T10:27:14.278Z,51.97
2019-01-21T10:29:56.738Z,50.87
2019-01-21T10:33:21.248Z,48.07
2019-01-21T10:36:50.718Z,45.43
2019-01-21T10:39:58.448Z,45.87
2019-01-21T10:43:03.591Z,44.47
2019-01-21T10:46:01.684Z,44.17
2019-01-21T10:49:10.098Z,39.93
2019-01-21T10:52:28.046Z,37.43
2019-01-21T10:55:14.758Z,46.73
2019-01-21T10:58:19.236Z,47.40
2019-01-21T11:01:36.949Z,44.53
2019-01-21T11:04:49.103Z,47.80
2019-01-21T11:08:19.018Z,41.83
2019-01-21T11:11:30.593Z,49.00
2019-01-21T11:14:35.048Z,49.03
2019-01-21T11:17:58.928Z,49.60
2019-01-21T11:21:37.975Z,51.20
2019-01-21T11:24:49.338Z,46.07
2019-01-21T11:28:15.312Z,48.97
2019-01-21T11:31:17.406Z,47.23
2019-01-21T11:34:26.071Z,49.73
2019-01-21T11:37:20.066Z,47.63
2019-01-21T11:40:34.984Z,48.23
2019-01-21T11:43:41.369Z,49.43
2019-01-21T11:46:34.324Z,44.30
2019-01-21T11:49:54.958Z,46.83
2019-01-21T11:52:53.302Z,45.37
2019-01-21T11:56:03.500Z,48.00
2019-01-21T11:59:23.780Z,46.43
2019-01-21T12:02:10.852Z,42.50
2019-01-21T12:05:29.052Z,47.30
2019-01-21T12:08:48.473Z,47.40
2019-01-21T12:12:10.745Z,47.17
2019-01-21T12:15:23.638Z,45.60
2019-01-21T12:18:34.198Z,42.40
2019-01-21T12:21:42.890Z,43.50
2019-01-21T12:24:59.235Z,46.73
2019-01-21T12:28:34.824Z,47.57
2019-01-21T12:31:42.065Z,46.40
2019-01-21T12:34:54.854Z,43.33
2019-01-21T12:37:53.836Z,46.27
2019-01-21T12:41:00.522Z,45.63
2019-01-21T12:44:16.924Z,50.53
2019-01-21T12:46:59.277Z,45.07
2019-01-21T12:50:28.768Z,45.07
2019-01-21T12:53:34.912Z,42.83
2019-01-21T12:56:55.504Z,45.17
2019-01-21T13:00:02.742Z,46.37
2019-01-21T13:03:04.968Z,44.93
2019-01-21T13:06:07.635Z,42.67
2019-01-21T13:09:18.028Z,41.40
2019-01-21T13:12:26.887Z,45.33
2019-01-21T13:15:26.299Z,43.53
2019-01-21T13:18:21.734Z,48.37
2019-01-21T13:21:39.339Z,29.53
2019-01-21T13:24:19.927Z,37.83
2019-01-21T13:27:28.666Z,41.63
2019-01-21T13:30:47.043Z,47.53
2019-01-21T13:33:56.504Z,50.03
2019-01-21T13:37:12.999Z,50.10
2019-01-21T13:40:22.561Z,50.17
2019-01-21T13:43:31.514Z,48.03
2019-01-21T13:46:23.205Z,50.97
2019-01-21T13:49:16.154Z,46.73
2019-01-21T13:52:42.823Z,46.97
2019-01-21T13:55:54.360Z,51.37
2019-01-21T13:59:01.562Z,52.57
2019-01-21T14:02:02.506Z,48.07
2019-01-21T14:05:20.431Z,35.13
2019-01-21T14:08:34.432Z,48.53
2019-01-21T14:11:39.935Z,49.83
2019-01-21T14:14:29.564Z,55.67
2019-01-21T14:17:46.125Z,48.63
2019-01-21T14:20:54.824Z,48.87
2019-01-21T14:23:57.352Z,53.33
2019-01-21T14:26:57.527Z,51.97
2019-01-21T14:29:47.688Z,48.30
2019-01-21T14:32:42.872Z,52.07
2019-01-21T14:35:41.176Z,53.13
2019-01-21T14:38:43.957Z,51.83
2019-01-21T14:42:19.999Z,48.13
2019-01-21T14:45:36.046Z,52.27
2019-01-21T14:48:37.567Z,56.77
2019-01-21T14:51:57.762Z,61.17
2019-01-21T14:55:18.631Z,59.33
2019-01-21T14:58:16.165Z,60.70
2019-01-21T15:01:36.985Z,62.20
2019-01-21T15:04:22.090Z,49.03
2019-01-21T15:07:25.809Z,59.53
2019-01-21T15:10:22.551Z,58.83
2019-01-21T15:13:30.463Z,64.40
2019-01-21T15:16:45.310Z,65.10
2019-01-21T15:19:44.060Z,61.00
2019-01-21T15:22:53.835Z,62.87
2019-01-21T15:25:50.641Z,60.47
2019-01-21T15:28:54.186Z,66.87
2019-01-21T15:32:11.954Z,68.23
2019-01-21T15:35:32.903Z,64.03
2019-01-21T15:38:54.932Z,69.17
2019-01-21T15:42:03.334Z,69.20
2019-01-21T15:45:11.821Z,70.40
2019-01-21T15:48:11.096Z,66.40
2019-01-21T15:51:24.332Z,63.63
2019-01-21T15:54:23.748Z,66.53
2019-01-21T15:57:47.625Z,68.77
2019-01-21T16:00:52.951Z,68.43
2019-01-21T16:03:47.520Z,64.73
2019-01-21T16:06:53.522Z,58.83
2019-01-21T16:10:10.893Z,60.43
2019-01-21T16:13:03.165Z,56.30
2019-01-21T16:16:22.810Z,67.80
2019-01-21T16:19:20.927Z,64.60
2019-01-21T16:22:54.058Z,65.87
2019-01-21T16:25:35.664Z,69.17
2019-01-21T16:28:44.288Z,76.17
2019-01-21T16:31:26.091Z,70.23
2019-01-21T16:34:51.642Z,72.40
2019-01-21T16:37:55.733Z,68.50
2019-01-21T16:41:06.868Z,63.87
2019-01-21T16:43:37.224Z,62.87
2019-01-21T16:46:07.941Z,59.60
2019-01-21T16:48:38.786Z,63.27
2019-01-21T16:51:09.959Z,64.40
2019-01-21T16:53:40.883Z,68.57
2019-01-21T16:56:12.341Z,70.60
2019-01-21T16:58:42.881Z,71.93
2019-01-21T17:01:13.622Z,64.67
2019-01-21T17:03:44.079Z,75.83
2019-01-21T17:06:14.478Z,79.70
2019-01-21T17:08:46.309Z,72.83
2019-01-21T17:11:18.689Z,64.40
2019-01-21T17:13:49.183Z,68.53
2019-01-21T17:16:19.840Z,68.90
2019-01-21T17:18:50.724Z,78.53
2019-01-21T17:21:26.918Z,80.53
2019-01-21T17:23:53.528Z,83.93
2019-01-21T17:26:24.037Z,82.63
2019-01-21T17:28:55.011Z,85.60
2019-01-21T17:31:25.654Z,90.57
2019-01-21T17:33:56.426Z,85.23
2019-01-21T17:36:27.167Z,86.50
2019-01-21T17:38:57.531Z,79.80
2019-01-21T17:41:28.746Z,90.83
2019-01-21T17:43:59.380Z,103.10
2019-01-21T17:46:31.514Z,93.67
2019-01-21T17:49:02.648Z,95.37
2019-01-21T17:51:34.451Z,88.90
2019-01-21T17:54:05.414Z,99.87
2019-01-21T17:56:37.126Z,100.77
2019-01-21T17:59:08.111Z,95.77
2019-01-21T18:01:39.439Z,92.30
2019-01-21T18:04:10.296Z,88.90
2019-01-21T18:06:41.036Z,90.13
2019-01-21T18:09:11.596Z,96.17
2019-01-21T18:11:42.410Z,92.13
2019-01-21T18:14:13.578Z,88.13
2019-01-21T18:16:44.427Z,92.20
2019-01-21T18:19:15.528Z,82.67
2019-01-21T18:21:46.319Z,89.53
2019-01-21T18:24:16.710Z,81.97
2019-01-21T18:26:47.622Z,87.37
2019-01-21T18:29:18.116Z,85.03
2019-01-21T18:31:49.308Z,91.73
2019-01-21T18:34:20.128Z,86.47
2019-01-21T18:36:51.814Z,86.67
2019-01-21T18:39:22.617Z,100.70
2019-01-21T18:41:53.556Z,91.50
2019-01-21T18:44:24.086Z,99.87
2019-01-21T18:46:54.531Z,102.10
2019-01-21T18:49:25.426Z,102.53
2019-01-21T18:51:56.317Z,94.57
2019-01-21T18:54:27.045Z,95.00
2019-01-21T18:56:58.225Z,90.20
2019-01-21T18:59:28.806Z,101.93
2019-01-21T19:02:00.311Z,101.23
2019-01-21T19:04:31.130Z,109.33
2019-01-21T19:07:01.985Z,101.97
2019-01-21T19:09:32.728Z,95.07
2019-01-21T19:12:03.887Z,91.63
2019-01-21T19:14:34.558Z,98.17
2019-01-21T19:17:05.654Z,97.80
2019-01-21T19:19:37.050Z,94.47
2019-01-21T19:22:07.677Z,98.90
2019-01-21T19:24:38.384Z,95.77
2019-01-21T19:27:09.227Z,90.70
2019-01-21T19:29:40.330Z,94.30
2019-01-21T19:32:11.605Z,94.63
2019-01-21T19:34:42.279Z,95.40
2019-01-21T19:37:12.939Z,88.60
2019-01-21T19:39:43.610Z,89.77
2019-01-21T19:42:14.242Z,88.30
2019-01-21T19:44:44.914Z,98.20
2019-01-21T19:47:15.629Z,94.13
2019-01-21T19:49:46.266Z,91.07
2019-01-21T19:52:16.687Z,87.97
2019-01-21T19:54:47.097Z,89.23
2019-01-21T19:57:17.843Z,94.33
2019-01-21T19:59:48.473Z,93.47
2019-01-21T20:02:19.129Z,89.53
2019-01-21T20:04:50.056Z,95.93
2019-01-21T20:07:20.633Z,74.27
2019-01-21T20:09:51.930Z,96.57
2019-01-21T20:12:23.435Z,95.33
2019-01-21T20:14:54.348Z,93.73
2019-01-21T20:17:24.929Z,91.60
2019-01-21T20:19:55.565Z,80.37
2019-01-21T20:22:26.193Z,96.80
2019-01-21T20:24:56.981Z,91.20
2019-01-21T20:27:28.099Z,89.57
2019-01-21T20:29:58.752Z,88.43
2019-01-21T20:32:29.701Z,89.20
2019-01-21T20:35:00.314Z,89.83
2019-01-21T20:37:31.158Z,86.07
2019-01-21T20:40:02.062Z,90.73
2019-01-21T20:42:32.643Z,90.33
2019-01-21T20:45:03.197Z,88.97
2019-01-21T20:47:34.491Z,88.93
2019-01-21T20:50:06.205Z,92.23
2019-01-21T20:52:37.971Z,88.10
2019-01-21T20:55:09.030Z,69.73
2019-01-21T20:57:40.697Z,84.50
2019-01-21T21:00:14.490Z,91.87
2019-01-21T21:02:57.244Z,89.57
2019-01-21T21:05:31.135Z,84.83
2019-01-21T21:08:02.094Z,84.47
2019-01-21T21:10:33.157Z,85.70
2019-01-21T21:13:04.151Z,80.03
2019-01-21T21:15:35.091Z,98.87
2019-01-21T21:18:06.268Z,89.53
2019-01-21T21:20:37.093Z,97.53
2019-01-21T21:23:08.145Z,100.20
2019-01-21T21:25:38.897Z,100.77
2019-01-21T21:28:09.769Z,99.67
2019-01-21T21:30:40.594Z,93.83
2019-01-21T21:33:11.806Z,100.70
2019-01-21T21:35:43.861Z,103.97
2019-01-21T21:38:14.741Z,91.87
2019-01-21T21:40:45.952Z,105.43
2019-01-21T21:43:16.760Z,104.83
2019-01-21T21:45:47.724Z,100.30
2019-01-21T21:48:18.418Z,102.87
2019-01-21T21:50:49.326Z,107.03
2019-01-21T21:53:19.945Z,108.77
2019-01-21T21:55:51.144Z,107.30
2019-01-21T21:58:22.186Z,108.47
2019-01-21T22:00:53.147Z,115.40
2019-01-21T22:03:24.176Z,103.67
2019-01-21T22:05:54.846Z,108.60
2019-01-21T22:08:27.138Z,112.60
2019-01-21T22:10:57.656Z,92.97
2019-01-21T22:13:28.549Z,114.00
2019-01-21T22:15:59.321Z,112.90
2019-01-21T22:18:30.624Z,104.27
2019-01-21T22:21:01.645Z,121.97
2019-01-21T22:23:32.788Z,116.87
2019-01-21T22:26:03.700Z,109.03
2019-01-21T22:28:34.364Z,119.03
2019-01-21T22:31:04.790Z,114.30
2019-01-21T22:33:35.262Z,91.20
2019-01-21T22:36:05.838Z,111.57
2019-01-21T22:38:36.397Z,112.93
2019-01-21T22:41:06.786Z,121.23
2019-01-21T22:43:37.426Z,110.03
2019-01-21T22:46:07.974Z,119.57
2019-01-21T22:48:39.673Z,118.40
2019-01-21T22:51:10.330Z,123.27
2019-01-21T22:53:40.944Z,120.57
2019-01-21T22:56:11.561Z,126.03
2019-01-21T22:58:41.915Z,123.07
2019-01-21T23:01:25.793Z,122.03
2019-01-21T23:03:56.479Z,127.73
2019-01-21T23:06:26.797Z,105.97
2019-01-21T23:08:58.149Z,106.10
2019-01-21T23:11:28.535Z,125.73
2019-01-21T23:13:59.329Z,124.90
2019-01-21T23:16:29.856Z,125.07
2019-01-21T23:19:00.243Z,120.03
2019-01-21T23:21:30.514Z,116.67
2019-01-21T23:24:01.221Z,117.97
2019-01-21T23:26:33.701Z,118.00
2019-01-21T23:29:04.252Z,116.67
2019-01-21T23:31:34.679Z,126.17
2019-01-21T23:34:05.099Z,119.97
2019-01-21T23:36:35.564Z,125.37
2019-01-21T23:39:08.386Z,113.93
2019-01-21T23:41:38.916Z,111.30
2019-01-21T23:44:09.386Z,112.27
2019-01-21T23:46:39.985Z,111.03
2019-01-21T23:49:10.661Z,115.10
2019-01-21T23:51:41.464Z,117.93
2019-01-21T23:54:11.769Z,99.13
2019-01-21T23:56:42.330Z,107.57
2019-01-21T23:59:12.663Z,111.23
